Time;durP1;ratioP1;P1;durP2;ratioP2;P2;SDS_P1;SDS_P2;PMS_P1;PMS_P2;Temp;Humidity;BMP_temperature;BMP_pressure;BME280_temperature;BME280_humidity;BME280_pressure;Samples;Min_cycle;Max_cycle;Signal;HPM_P1;HPM_P2
2022/06/12 00:00:41;;;;;;;2.50;1.17;;;22.20;43.40;;;;;;2366445;53;20938;-68
2022/06/12 00:03:08;;;;;;;2.17;0.95;;;22.10;43.40;;;;;;2371769;53;20935;-71
2022/06/12 00:05:36;;;;;;;3.53;1.00;;;22.10;43.50;;;;;;2370941;53;20926;-69
2022/06/12 00:08:03;;;;;;;2.03;0.90;;;22.10;43.60;;;;;;2370247;53;21014;-70
2022/06/12 00:10:30;;;;;;;2.25;1.10;;;22.00;43.60;;;;;;2368389;53;21093;-69
2022/06/12 00:12:56;;;;;;;2.37;1.10;;;22.00;43.70;;;;;;2346292;53;21457;-69
2022/06/12 00:15:25;;;;;;;2.37;1.08;;;22.00;43.90;;;;;;2414051;52;20934;-70
2022/06/12 00:17:51;;;;;;;2.62;1.10;;;22.00;44.00;;;;;;2352452;53;21491;-68
2022/06/12 00:20:18;;;;;;;2.90;1.02;;;22.00;44.70;;;;;;2370464;53;21026;-69
2022/06/12 00:22:44;;;;;;;2.12;1.02;;;21.90;44.10;;;;;;2370826;53;20958;-69
2022/06/12 00:25:14;;;;;;;2.33;1.10;;;21.90;44.20;;;;;;2460982;52;21014;-73
2022/06/12 00:27:41;;;;;;;3.08;1.23;;;21.90;44.20;;;;;;2365702;53;20978;-70
2022/06/12 00:30:09;;;;;;;2.62;1.15;;;21.80;44.10;;;;;;2624198;52;20959;-72
2022/06/12 00:32:35;;;;;;;3.00;1.33;;;21.80;44.20;;;;;;2599951;52;20922;-69
2022/06/12 00:35:02;;;;;;;2.83;1.30;;;21.80;44.30;;;;;;2372239;53;20946;-69
2022/06/12 00:37:28;;;;;;;3.80;1.17;;;21.70;44.30;;;;;;2395175;52;20926;-70
2022/06/12 00:39:56;;;;;;;2.80;1.33;;;21.70;44.50;;;;;;2362967;53;20999;-68
2022/06/12 00:42:37;;;;;;;4.12;1.20;;;21.70;44.70;;;;;;2360835;53;21030;-68
2022/06/12 00:45:51;;;;;;;2.42;1.10;;;21.70;44.70;;;;;;2365750;53;21880;-69
2022/06/12 00:48:23;;;;;;;2.20;0.88;;;21.60;45.00;;;;;;2347309;54;20938;-68
2022/06/12 00:51:11;;;;;;;3.58;1.10;;;21.60;44.80;;;;;;2369777;53;20926;-74
2022/06/12 00:53:52;;;;;;;2.10;1.10;;;21.60;45.20;;;;;;2371273;53;21475;-69
2022/06/12 00:56:20;;;;;;;3.12;1.15;;;21.50;44.80;;;;;;2372335;53;20903;-70
2022/06/12 00:58:49;;;;;;;3.37;1.27;;;21.50;44.80;;;;;;2372910;53;21498;-71
2022/06/12 01:01:28;;;;;;;2.75;1.10;;;21.40;44.90;;;;;;2430856;53;21423;-68
2022/06/12 01:06:42;;;;;;;2.78;1.17;;;21.40;45.00;;;;;;2571439;52;21033;-69
2022/06/12 01:09:14;;;;;;;2.67;1.25;;;21.30;45.10;;;;;;2347330;53;21755;-73
2022/06/12 01:11:44;;;;;;;3.30;1.40;;;21.30;45.10;;;;;;2365125;53;21403;-69
2022/06/12 01:14:16;;;;;;;2.40;1.00;;;21.20;45.10;;;;;;2371578;53;20980;-69
2022/06/12 01:16:45;;;;;;;4.10;1.40;;;21.20;45.20;;;;;;2371934;53;20999;-69
2022/06/12 01:19:18;;;;;;;3.25;1.40;;;21.10;45.10;;;;;;2372222;53;22065;-69
2022/06/12 01:25:11;;;;;;;3.03;1.20;;;21.10;45.50;;;;;;2371598;53;21431;-68
2022/06/12 01:28:12;;;;;;;2.20;1.00;;;21.10;45.90;;;;;;2360978;53;20933;-68
2022/06/12 01:33:23;;;;;;;2.28;0.93;;;21.00;45.60;;;;;;2344217;53;1543331;-71
2022/06/12 01:36:09;;;;;;;1.80;1.00;;;21.00;45.60;;;;;;2358931;53;20982;-68
2022/06/12 01:38:52;;;;;;;3.62;1.15;;;21.00;45.60;;;;;;2368464;53;21733;-68
2022/06/12 01:44:44;;;;;;;2.25;0.95;;;20.90;45.60;;;;;;2371846;53;20899;-68
2022/06/12 01:49:50;;;;;;;2.35;1.05;;;20.90;45.80;;;;;;2601662;52;21018;-68
2022/06/12 01:52:42;;;;;;;2.67;1.20;;;20.80;45.60;;;;;;2372395;53;21061;-71
2022/06/12 01:55:40;;;;;;;2.60;1.10;;;20.70;45.40;;;;;;2362679;53;20934;-67
2022/06/12 01:58:25;;;;;;;3.08;1.12;;;20.70;45.80;;;;;;2368096;53;20922;-69
2022/06/12 02:00:58;;;;;;;2.15;1.12;;;20.60;45.70;;;;;;2371461;53;20886;-69
2022/06/12 02:03:36;;;;;;;2.28;1.08;;;20.60;45.80;;;;;;2358164;53;20903;-71
2022/06/12 02:06:09;;;;;;;2.53;1.08;;;20.60;46.00;;;;;;2370450;53;21823;-72
2022/06/12 02:14:40;;;;;;;3.22;1.15;;;20.50;46.40;;;;;;2374024;53;20998;-67
2022/06/12 02:17:08;;;;;;;3.10;1.48;;;20.40;45.90;;;;;;2371949;53;21030;-68
2022/06/12 02:19:37;;;;;;;2.80;1.30;;;20.40;46.00;;;;;;2371869;53;20934;-70
2022/06/12 02:22:17;;;;;;;3.30;1.70;;;20.40;46.20;;;;;;2371506;53;20902;-68
2022/06/12 02:24:46;;;;;;;2.45;1.15;;;20.30;46.70;;;;;;2371328;53;20942;-71
2022/06/12 02:27:15;;;;;;;2.42;1.20;;;20.30;46.40;;;;;;2371605;53;20930;-71
2022/06/12 02:31:05;;;;;;;2.55;1.27;;;20.30;46.40;;;;;;2372173;53;21624;-68
2022/06/12 02:33:38;;;;;;;3.90;1.35;;;20.20;46.40;;;;;;2372152;53;20911;-68
2022/06/12 02:36:10;;;;;;;2.47;1.27;;;20.20;46.40;;;;;;2375018;53;20941;-68
2022/06/12 02:38:45;;;;;;;2.58;1.30;;;20.20;46.50;;;;;;2544204;52;20963;-68
2022/06/12 02:41:57;;;;;;;2.83;1.42;;;20.10;46.60;;;;;;2624278;52;20981;-70
2022/06/12 02:44:42;;;;;;;4.80;1.42;;;20.10;46.90;;;;;;2543314;52;20954;-68
2022/06/12 02:47:14;;;;;;;2.97;1.50;;;20.00;47.20;;;;;;2370756;53;21658;-72
2022/06/12 02:49:43;;;;;;;2.62;1.35;;;20.00;47.60;;;;;;2370776;53;21685;-68
2022/06/12 02:52:33;;;;;;;2.42;1.05;;;20.00;47.00;;;;;;2567978;52;20986;-68
2022/06/12 02:58:40;;;;;;;2.17;1.10;;;20.00;47.30;;;;;;2428557;52;20914;-73
2022/06/12 03:01:16;;;;;;;1.87;1.00;;;19.90;47.20;;;;;;2402528;52;21121;-69
2022/06/12 03:05:36;;;;;;;2.65;1.10;;;19.90;47.00;;;;;;2323549;54;21731;-69
2022/06/12 03:08:08;;;;;;;2.40;0.90;;;19.90;47.30;;;;;;2349956;53;20974;-68
2022/06/12 03:10:45;;;;;;;1.92;1.02;;;19.80;46.90;;;;;;2367313;53;20957;-67
2022/06/12 03:13:15;;;;;;;3.00;1.17;;;19.80;47.30;;;;;;2350841;54;20947;-73
2022/06/12 03:15:51;;;;;;;2.75;1.30;;;19.80;47.20;;;;;;2344222;53;20985;-69
2022/06/12 03:22:10;;;;;;;1.77;0.93;;;19.80;47.70;;;;;;2443837;53;21401;-71
2022/06/12 03:25:37;;;;;;;2.30;1.20;;;19.70;47.70;;;;;;2345317;53;24826;-69
2022/06/12 03:28:14;;;;;;;1.70;0.90;;;19.70;47.60;;;;;;2334888;54;20968;-68
2022/06/12 03:32:18;;;;;;;2.90;1.10;;;19.70;47.40;;;;;;2336643;53;20944;-69
2022/06/12 03:35:09;;;;;;;2.35;1.15;;;19.70;47.40;;;;;;2353313;53;20945;-69
2022/06/12 03:37:59;;;;;;;2.25;1.00;;;19.60;47.40;;;;;;2352594;53;21545;-69
2022/06/12 03:40:39;;;;;;;3.20;1.50;;;19.60;47.80;;;;;;2371876;53;20921;-68
2022/06/12 03:43:10;;;;;;;2.60;1.30;;;19.50;47.60;;;;;;2372018;53;20998;-72
2022/06/12 03:47:02;;;;;;;2.30;1.17;;;19.50;47.70;;;;;;2371942;53;21436;-68
2022/06/12 03:51:05;;;;;;;2.10;1.10;;;19.50;48.00;;;;;;2372169;53;20990;-68
2022/06/12 03:53:46;;;;;;;2.67;1.37;;;19.50;48.00;;;;;;2372355;53;20970;-67
2022/06/12 03:58:07;;;;;;;2.12;1.00;;;19.40;47.70;;;;;;2371636;53;21033;-68
2022/06/12 04:00:46;;;;;;;3.58;1.10;;;19.40;47.70;;;;;;2431291;52;20921;-73
2022/06/12 04:03:21;;;;;;;2.40;1.00;;;19.40;47.90;;;;;;2371692;53;20942;-71
2022/06/12 04:05:54;;;;;;;2.85;1.30;;;19.40;47.90;;;;;;2340250;54;20924;-68
2022/06/12 04:08:27;;;;;;;2.95;1.20;;;19.30;48.10;;;;;;2371668;53;20953;-68
2022/06/12 04:10:54;;;;;;;2.67;1.33;;;19.30;48.20;;;;;;2343767;53;20917;-72
2022/06/12 04:13:21;;;;;;;2.03;1.05;;;19.30;48.20;;;;;;2343688;53;21434;-68
2022/06/12 04:16:20;;;;;;;1.87;0.93;;;19.30;48.30;;;;;;2360907;53;21013;-69
2022/06/12 04:18:46;;;;;;;3.42;1.20;;;19.30;48.60;;;;;;2349495;53;21812;-68
2022/06/12 04:21:20;;;;;;;3.28;1.20;;;19.30;48.40;;;;;;2344305;53;21744;-67
2022/06/12 04:23:54;;;;;;;3.05;1.40;;;19.30;48.70;;;;;;2362481;54;21854;-68
2022/06/12 04:26:42;;;;;;;3.03;1.33;;;19.30;48.70;;;;;;2372391;53;20914;-68
2022/06/12 04:29:32;;;;;;;2.58;1.40;;;19.30;48.90;;;;;;2372348;53;20962;-72
2022/06/12 04:32:00;;;;;;;3.17;1.55;;;19.30;49.30;;;;;;2371644;53;20958;-69
2022/06/12 04:34:31;;;;;;;2.55;1.10;;;19.30;48.80;;;;;;2371962;53;20915;-68
2022/06/12 04:37:25;;;;;;;2.90;1.30;;;19.30;49.10;;;;;;2371666;53;21002;-69
2022/06/12 04:39:51;;;;;;;3.00;1.20;;;19.30;49.60;;;;;;2365444;53;21422;-69
2022/06/12 04:42:19;;;;;;;2.50;1.08;;;19.30;49.10;;;;;;2365198;53;21383;-69
2022/06/12 04:44:46;;;;;;;2.45;1.20;;;19.30;49.20;;;;;;2371642;53;21870;-71
2022/06/12 04:47:17;;;;;;;2.72;1.30;;;19.30;49.30;;;;;;2370996;53;20924;-70
2022/06/12 04:49:44;;;;;;;4.45;1.87;;;19.30;49.60;;;;;;2380530;52;20977;-69
2022/06/12 04:52:11;;;;;;;3.67;1.60;;;19.30;49.60;;;;;;2624597;52;21408;-69
2022/06/12 04:54:38;;;;;;;3.10;1.60;;;19.30;49.60;;;;;;2363184;53;20965;-73
2022/06/12 04:57:05;;;;;;;2.70;1.30;;;19.30;49.60;;;;;;2371264;53;20958;-68
2022/06/12 04:59:31;;;;;;;3.33;1.58;;;19.40;49.80;;;;;;2370497;53;20906;-71
2022/06/12 05:01:57;;;;;;;2.67;1.37;;;19.40;49.90;;;;;;2371924;53;20997;-68
2022/06/12 05:04:24;;;;;;;2.87;1.40;;;19.40;49.90;;;;;;2458783;52;20906;-69
2022/06/12 05:06:51;;;;;;;2.05;1.10;;;19.50;50.10;;;;;;2368450;53;21380;-71
2022/06/12 05:09:19;;;;;;;3.45;1.90;;;19.50;50.10;;;;;;2621460;52;21388;-73
2022/06/12 05:11:45;;;;;;;2.87;1.42;;;19.50;50.30;;;;;;2367737;53;21531;-69
2022/06/12 05:14:11;;;;;;;3.97;1.50;;;19.60;50.40;;;;;;2373010;53;21427;-69
2022/06/12 05:16:57;;;;;;;2.67;1.40;;;19.60;50.40;;;;;;2363262;53;20968;-70
2022/06/12 05:19:30;;;;;;;3.65;1.35;;;19.70;50.90;;;;;;2370597;53;21566;-70
2022/06/12 05:21:56;;;;;;;2.80;1.37;;;19.70;50.70;;;;;;2364863;53;20984;-69
2022/06/12 05:24:24;;;;;;;2.75;1.30;;;19.70;50.70;;;;;;2621981;52;20934;-69
2022/06/12 05:26:52;;;;;;;2.78;1.37;;;19.80;50.90;;;;;;2370297;53;20954;-68
2022/06/12 05:29:30;;;;;;;2.40;1.20;;;19.80;50.90;;;;;;2371301;53;20950;-68
2022/06/12 05:31:57;;;;;;;3.10;1.30;;;19.90;51.30;;;;;;2368053;53;21049;-69
2022/06/12 05:34:25;;;;;;;2.42;1.10;;;19.90;51.00;;;;;;2368302;53;21462;-68
2022/06/12 05:36:51;;;;;;;2.65;1.45;;;20.00;51.30;;;;;;2372254;53;20919;-68
2022/06/12 05:39:17;;;;;;;2.67;1.48;;;20.00;51.40;;;;;;2366248;53;20988;-68
2022/06/12 05:41:44;;;;;;;4.20;1.58;;;20.10;51.60;;;;;;2370905;53;20898;-71
2022/06/12 05:44:11;;;;;;;2.95;1.60;;;20.20;51.80;;;;;;2370463;53;21072;-68
2022/06/12 05:46:38;;;;;;;2.85;1.67;;;20.20;51.90;;;;;;2371524;53;20926;-69
2022/06/12 05:49:05;;;;;;;3.95;1.55;;;20.30;52.00;;;;;;2373906;53;20928;-68
2022/06/12 05:51:33;;;;;;;3.30;1.80;;;20.40;52.10;;;;;;2623089;52;20926;-69
2022/06/12 05:53:59;;;;;;;2.58;1.60;;;20.50;52.10;;;;;;2369914;53;20974;-69
2022/06/12 05:56:26;;;;;;;2.83;1.77;;;20.50;52.10;;;;;;2397400;52;21008;-74
2022/06/12 05:58:53;;;;;;;3.25;1.40;;;20.60;52.10;;;;;;2372277;53;20902;-69
2022/06/12 06:01:22;;;;;;;2.92;1.52;;;20.70;52.10;;;;;;2373361;53;21047;-75
2022/06/12 06:03:50;;;;;;;3.20;1.50;;;20.80;52.10;;;;;;2365105;53;20947;-68
2022/06/12 06:06:22;;;;;;;3.15;1.85;;;20.90;52.10;;;;;;2360205;53;20981;-70
2022/06/12 06:08:48;;;;;;;3.92;1.77;;;20.90;52.10;;;;;;2370154;53;21823;-68
2022/06/12 06:11:14;;;;;;;3.20;1.60;;;21.00;51.90;;;;;;2371398;53;21639;-69
2022/06/12 06:13:41;;;;;;;3.58;1.70;;;21.10;52.00;;;;;;2370752;53;20918;-69
2022/06/12 06:16:09;;;;;;;3.60;1.52;;;21.20;52.00;;;;;;2621700;52;20946;-70
2022/06/12 06:18:36;;;;;;;8.32;1.77;;;21.30;52.00;;;;;;2366201;53;20917;-70
2022/06/12 06:21:02;;;;;;;3.08;1.70;;;21.30;52.00;;;;;;2371354;53;21005;-69
2022/06/12 06:23:29;;;;;;;4.45;1.65;;;21.40;52.00;;;;;;2367932;53;20993;-72
2022/06/12 06:25:58;;;;;;;3.50;1.62;;;21.50;52.10;;;;;;2370027;53;20918;-70
2022/06/12 06:28:24;;;;;;;2.92;1.58;;;21.60;52.40;;;;;;2370854;53;20962;-70
2022/06/12 06:30:50;;;;;;;3.03;1.50;;;21.70;52.30;;;;;;2369143;53;20933;-70
2022/06/12 06:33:16;;;;;;;3.00;1.60;;;21.70;52.20;;;;;;2369320;53;21016;-73
2022/06/12 06:35:45;;;;;;;3.12;1.35;;;21.80;52.20;;;;;;2550881;52;20898;-69
2022/06/12 06:38:11;;;;;;;3.03;1.60;;;21.90;52.20;;;;;;2370945;53;21399;-69
2022/06/12 06:40:38;;;;;;;3.42;1.60;;;22.00;52.20;;;;;;2372849;53;21056;-68
2022/06/12 06:43:05;;;;;;;4.87;1.60;;;22.10;52.10;;;;;;2364079;53;20926;-70
2022/06/12 06:48:16;;;;;;;5.45;1.90;;;22.20;52.10;;;;;;2373898;53;20913;-70
2022/06/12 06:50:42;;;;;;;3.90;1.50;;;22.30;52.10;;;;;;2363635;53;20919;-70
2022/06/12 06:53:09;;;;;;;2.92;1.62;;;22.40;52.10;;;;;;2369764;53;21001;-71
2022/06/12 06:55:36;;;;;;;2.90;1.62;;;22.50;52.20;;;;;;2369263;53;20998;-70
2022/06/12 06:58:08;;;;;;;2.55;1.33;;;22.60;52.10;;;;;;2370196;53;20926;-69
2022/06/12 07:00:35;;;;;;;3.20;1.65;;;22.70;52.00;;;;;;2366029;53;21060;-70
2022/06/12 07:03:02;;;;;;;4.07;2.10;;;22.70;51.90;;;;;;2370372;53;21667;-68
2022/06/12 07:05:29;;;;;;;2.80;1.37;;;22.80;52.00;;;;;;2369129;53;20989;-70
2022/06/12 07:07:55;;;;;;;3.85;1.60;;;22.90;51.90;;;;;;2615689;52;20961;-74
2022/06/12 07:10:23;;;;;;;3.28;1.52;;;23.00;52.00;;;;;;2616424;52;21458;-70
2022/06/12 07:12:49;;;;;;;4.07;1.75;;;23.10;52.10;;;;;;2431976;52;20969;-70
2022/06/12 07:15:16;;;;;;;2.97;1.60;;;23.20;52.20;;;;;;2370893;53;21385;-72
2022/06/12 07:17:42;;;;;;;3.95;2.00;;;23.20;52.20;;;;;;2370409;53;21558;-71
2022/06/12 07:20:10;;;;;;;3.37;1.90;;;23.30;52.20;;;;;;2371519;53;20914;-67
2022/06/12 07:22:36;;;;;;;2.95;1.60;;;23.50;52.20;;;;;;2370337;53;21002;-72
2022/06/12 07:25:06;;;;;;;2.80;1.58;;;23.50;52.10;;;;;;2370080;53;20970;-72
2022/06/12 07:27:32;;;;;;;3.55;1.60;;;23.70;52.30;;;;;;2369538;53;20997;-70
2022/06/12 07:29:59;;;;;;;2.50;1.35;;;23.80;52.30;;;;;;2367480;53;20958;-69
2022/06/12 07:32:28;;;;;;;3.37;2.00;;;23.80;52.10;;;;;;2370878;53;20989;-70
2022/06/12 07:34:54;;;;;;;2.70;1.52;;;23.90;52.30;;;;;;2369967;53;21899;-70
2022/06/12 07:37:21;;;;;;;2.67;1.30;;;24.10;52.20;;;;;;2370044;53;20898;-70
2022/06/12 07:39:47;;;;;;;2.92;1.45;;;24.10;52.00;;;;;;2591455;52;21024;-70
2022/06/12 07:42:14;;;;;;;3.30;1.62;;;24.20;51.90;;;;;;2369560;53;21699;-71
2022/06/12 07:44:40;;;;;;;2.87;1.50;;;24.30;51.80;;;;;;2370089;53;20926;-70
2022/06/12 07:47:06;;;;;;;3.10;1.52;;;24.40;51.80;;;;;;2468675;52;21033;-70
2022/06/12 07:49:34;;;;;;;3.25;1.70;;;24.60;51.80;;;;;;2371465;53;21887;-72
2022/06/12 07:52:01;;;;;;;3.25;1.55;;;24.70;51.90;;;;;;2368712;53;20910;-70
2022/06/12 07:54:28;;;;;;;3.45;1.65;;;24.70;51.70;;;;;;2378422;52;21447;-69
2022/06/12 07:56:54;;;;;;;3.03;1.48;;;24.80;51.60;;;;;;2371745;53;21014;-71
2022/06/12 07:59:21;;;;;;;2.80;1.55;;;25.00;51.60;;;;;;2372527;53;21489;-72
2022/06/12 08:01:47;;;;;;;3.17;1.67;;;25.00;51.50;;;;;;2368887;53;21024;-71
2022/06/12 08:04:14;;;;;;;3.90;1.80;;;25.10;51.30;;;;;;2363625;53;21005;-70
2022/06/12 08:06:40;;;;;;;3.45;1.90;;;25.20;51.20;;;;;;2362452;53;20950;-73
2022/06/12 08:09:07;;;;;;;2.72;1.40;;;25.30;51.10;;;;;;2378157;53;21764;-71
2022/06/12 08:11:34;;;;;;;3.03;1.52;;;25.40;51.10;;;;;;2367913;53;20965;-71
2022/06/12 08:14:02;;;;;;;3.03;1.40;;;25.50;51.00;;;;;;2357459;53;21595;-70
2022/06/12 08:16:29;;;;;;;3.22;1.33;;;25.60;51.00;;;;;;2496566;52;20993;-73
2022/06/12 08:18:55;;;;;;;3.72;1.37;;;25.60;50.90;;;;;;2435526;52;20976;-71
2022/06/12 08:21:25;;;;;;;2.28;1.20;;;25.70;50.90;;;;;;2401090;52;21009;-71
2022/06/12 08:23:53;;;;;;;3.40;1.37;;;25.80;50.90;;;;;;2367563;53;20966;-71
2022/06/12 08:26:26;;;;;;;2.83;1.40;;;25.90;50.90;;;;;;2371313;53;20946;-70
2022/06/12 08:28:54;;;;;;;;;;;26.00;50.70;;;;;;2374502;53;20923;-71
2022/06/12 08:31:28;;;;;;;4.35;1.70;;;26.10;50.60;;;;;;2624115;52;20168;-71
2022/06/12 08:33:58;;;;;;;3.03;1.20;;;26.20;50.60;;;;;;2370734;53;20973;-71
2022/06/12 08:36:26;;;;;;;2.85;1.42;;;26.30;50.40;;;;;;2366594;53;20961;-72
2022/06/12 08:38:52;;;;;;;2.97;1.20;;;26.30;50.30;;;;;;2369236;53;20930;-71
2022/06/12 08:43:19;;;;;;;2.90;1.30;;;26.40;50.20;;;;;;2370705;53;21494;-70
2022/06/12 08:45:48;;;;;;;2.58;1.20;;;26.60;50.00;;;;;;2373296;53;21781;-71
2022/06/12 08:48:25;;;;;;;3.90;1.30;;;26.70;49.90;;;;;;2366614;54;20987;-71
2022/06/12 08:51:35;;;;;;;2.30;1.10;;;26.80;50.40;;;;;;2373365;53;21052;-72
2022/06/12 08:54:12;;;;;;;3.30;1.15;;;26.90;49.60;;;;;;2368312;53;20962;-70
2022/06/12 08:56:43;;;;;;;3.28;1.30;;;27.00;49.60;;;;;;2367190;53;20940;-72
2022/06/12 08:59:16;;;;;;;3.22;1.40;;;27.00;49.40;;;;;;2366684;53;21935;-73
2022/06/12 09:01:42;;;;;;;3.03;1.27;;;27.10;49.40;;;;;;2357409;53;20949;-71
2022/06/12 09:04:16;;;;;;;3.28;1.33;;;27.20;49.40;;;;;;2381022;53;20951;-72
2022/06/12 09:07:08;;;;;;;2.72;1.37;;;27.30;49.10;;;;;;2364417;53;21096;-72
2022/06/12 09:09:54;;;;;;;2.05;1.10;;;27.30;48.90;;;;;;2376565;53;21035;-73
2022/06/12 09:12:29;;;;;;;2.67;1.23;;;27.50;48.60;;;;;;2355323;54;21723;-74
2022/06/12 09:15:06;;;;;;;2.83;1.10;;;27.50;48.60;;;;;;2370541;53;20894;-70
2022/06/12 09:22:04;;;;;;;2.95;1.40;;;27.60;48.30;;;;;;2367036;53;20997;-71
2022/06/12 09:25:55;;;;;;;1.83;0.95;;;27.70;47.80;;;;;;2370738;53;21778;-72
2022/06/12 09:30:02;;;;;;;2.33;0.90;;;28.00;47.50;;;;;;2357618;53;20968;-72
2022/06/12 09:35:53;;;;;;;1.52;0.70;;;28.10;47.40;;;;;;2368868;53;21411;-71
2022/06/12 09:39:07;;;;;;;2.10;0.77;;;28.20;46.60;;;;;;2581831;52;20949;-72
2022/06/12 09:43:33;;;;;;;2.47;0.93;;;28.30;46.80;;;;;;2422527;52;20890;-71
2022/06/12 09:46:31;;;;;;;2.62;0.98;;;28.40;46.80;;;;;;2371127;53;21367;-70
2022/06/12 09:52:32;;;;;;;1.80;1.00;;;28.50;46.50;;;;;;2371580;53;21566;-70
2022/06/12 09:58:10;;;;;;;4.05;0.98;;;28.70;46.40;;;;;;2378412;52;21002;-70
2022/06/12 10:00:50;;;;;;;2.20;0.88;;;28.80;46.10;;;;;;2371212;53;20990;-70
2022/06/12 10:03:40;;;;;;;2.53;1.20;;;28.90;46.20;;;;;;2371318;53;20934;-70
2022/06/12 10:06:52;;;;;;;2.62;1.02;;;28.90;45.80;;;;;;2367186;54;20941;-70
2022/06/12 10:09:24;;;;;;;2.65;1.05;;;29.00;45.60;;;;;;2363784;53;20964;-74
2022/06/12 10:11:56;;;;;;;2.33;0.98;;;29.10;45.80;;;;;;2362897;53;21049;-74
2022/06/12 10:14:34;;;;;;;7.43;1.50;;;29.10;45.40;;;;;;2371099;53;20994;-74
2022/06/12 10:17:18;;;;;;;2.45;1.00;;;29.20;44.70;;;;;;2370913;53;20926;-74
2022/06/12 10:19:50;;;;;;;2.20;0.82;;;29.30;44.80;;;;;;2356212;53;21897;-73
2022/06/12 10:22:34;;;;;;;2.72;1.10;;;29.30;45.10;;;;;;2364199;53;20921;-73
2022/06/12 10:25:02;;;;;;;2.78;0.90;;;29.40;44.70;;;;;;2607689;53;21071;-71
2022/06/12 10:27:46;;;;;;;3.85;0.90;;;29.50;44.80;;;;;;2387298;52;20947;-78
2022/06/12 10:30:25;;;;;;;3.45;1.27;;;29.60;44.30;;;;;;2374599;53;21764;-72
2022/06/12 10:32:53;;;;;;;2.47;1.00;;;29.60;43.90;;;;;;2366953;53;20964;-74
2022/06/12 10:35:21;;;;;;;3.00;0.85;;;29.70;44.30;;;;;;2367012;53;20938;-76
2022/06/12 10:37:48;;;;;;;2.67;0.95;;;29.80;44.20;;;;;;2370143;53;20946;-74
2022/06/12 10:40:22;;;;;;;2.53;1.02;;;29.90;44.00;;;;;;2367323;53;21064;-74
2022/06/12 10:42:54;;;;;;;2.08;1.00;;;29.90;43.60;;;;;;2370522;53;20985;-75
2022/06/12 10:45:29;;;;;;;2.58;0.90;;;30.00;43.40;;;;;;2367984;53;20953;-74
2022/06/12 10:47:57;;;;;;;4.18;1.00;;;30.10;43.20;;;;;;2371026;53;20978;-74
2022/06/12 10:50:29;;;;;;;2.35;0.95;;;30.20;43.00;;;;;;2429134;52;20958;-74
2022/06/12 10:53:03;;;;;;;;;;;30.30;42.90;;;;;;2374149;53;20915;-73
2022/06/12 10:55:47;;;;;;;2.10;0.88;;;30.30;42.90;;;;;;2361365;53;20476;-74
2022/06/12 10:59:12;;;;;;;4.07;0.85;;;30.40;42.50;;;;;;2609621;52;20941;-74
2022/06/12 11:02:13;;;;;;;2.60;0.90;;;30.50;41.90;;;;;;2371032;53;20950;-73
2022/06/12 11:08:29;;;;;;;1.95;0.82;;;30.60;42.00;;;;;;2371084;53;20946;-73
2022/06/12 11:11:36;;;;;;;1.83;0.70;;;30.80;42.30;;;;;;2370999;53;20998;-76
2022/06/12 11:14:24;;;;;;;1.87;0.80;;;30.80;41.70;;;;;;2354656;54;21829;-74
2022/06/12 11:17:15;;;;;;;2.15;0.73;;;30.90;42.00;;;;;;2497943;52;20927;-75
2022/06/12 11:20:04;;;;;;;1.58;0.85;;;31.00;41.50;;;;;;2352627;53;21543;-75
2022/06/12 11:22:55;;;;;;;3.25;1.20;;;31.00;41.60;;;;;;2374237;53;20954;-76
2022/06/12 11:25:58;;;;;;;1.92;0.80;;;31.10;41.80;;;;;;2370822;53;20946;-77
2022/06/12 11:29:58;;;;;;;2.95;0.93;;;31.20;41.40;;;;;;2451147;52;20945;-74
2022/06/12 11:32:48;;;;;;;1.60;0.80;;;31.30;41.50;;;;;;2436038;52;20928;-76
2022/06/12 11:35:52;;;;;;;2.03;0.68;;;31.40;40.80;;;;;;2564309;52;20918;-74
2022/06/12 11:38:40;;;;;;;2.45;0.73;;;31.40;40.60;;;;;;2454631;52;20985;-74
2022/06/12 11:42:40;;;;;;;2.62;0.77;;;31.40;40.60;;;;;;2371593;53;20958;-74
2022/06/12 11:45:57;;;;;;;2.58;0.77;;;31.50;40.70;;;;;;2369569;53;21348;-73
2022/06/12 11:49:37;;;;;;;1.85;0.68;;;31.50;40.50;;;;;;2368666;53;21088;-74
2022/06/12 11:52:19;;;;;;;2.35;0.80;;;31.60;40.20;;;;;;2483703;52;20977;-74
2022/06/12 11:56:31;;;;;;;1.52;0.70;;;31.60;40.60;;;;;;2370929;53;21860;-73
2022/06/12 11:59:29;;;;;;;2.08;0.80;;;31.70;40.40;;;;;;2370497;53;21007;-73
2022/06/12 12:06:39;;;;;;;1.80;0.90;;;31.80;39.80;;;;;;2373141;53;20906;-73
2022/06/12 12:09:29;;;;;;;2.28;0.73;;;31.90;40.40;;;;;;2371080;53;21405;-74
2022/06/12 12:12:04;;;;;;;2.15;0.62;;;31.90;39.60;;;;;;2366227;53;21675;-75
2022/06/12 12:14:34;;;;;;;1.08;0.50;;;31.90;39.40;;;;;;2436251;52;21008;-74
2022/06/12 12:17:49;;;;;;;2.65;0.70;;;31.90;39.30;;;;;;2366487;53;20930;-74
2022/06/12 12:20:29;;;;;;;4.62;0.80;;;32.00;38.70;;;;;;2367292;54;20938;-73
2022/06/12 12:23:20;;;;;;;2.65;0.90;;;32.00;38.40;;;;;;2507500;52;20907;-75
2022/06/12 12:26:37;;;;;;;1.45;0.70;;;32.00;38.40;;;;;;2366587;54;20930;-75
2022/06/12 12:29:11;;;;;;;1.98;0.70;;;32.00;38.30;;;;;;2371445;53;20945;-74
2022/06/12 12:31:37;;;;;;;1.85;0.70;;;32.00;38.40;;;;;;2370924;53;21017;-78
2022/06/12 12:34:05;;;;;;;2.60;0.80;;;32.00;38.40;;;;;;2370571;53;21013;-74
2022/06/12 12:42:36;;;;;;;1.45;0.70;;;32.00;38.00;;;;;;2370934;53;20895;-72
2022/06/12 12:45:28;;;;;;;1.95;0.88;;;32.10;37.90;;;;;;2489811;52;20950;-73
2022/06/12 12:48:11;;;;;;;2.58;0.68;;;32.10;37.30;;;;;;2370015;53;20913;-72
2022/06/12 12:50:51;;;;;;;2.87;0.82;;;32.10;37.30;;;;;;2366992;53;20934;-78
2022/06/12 12:53:29;;;;;;;1.85;0.80;;;32.10;37.20;;;;;;2355812;54;20931;-74
2022/06/12 12:56:05;;;;;;;1.50;0.70;;;32.20;38.00;;;;;;2346134;54;20920;-74
2022/06/12 12:58:33;;;;;;;1.75;0.82;;;32.20;37.30;;;;;;2414512;52;20961;-74
2022/06/12 13:01:02;;;;;;;2.72;0.82;;;32.30;37.90;;;;;;2498363;52;21722;-74
2022/06/12 13:03:39;;;;;;;2.17;1.02;;;32.30;37.70;;;;;;2345762;53;21879;-75
2022/06/12 13:06:32;;;;;;;2.05;0.80;;;32.30;37.80;;;;;;2343526;53;20916;-74
2022/06/12 13:09:42;;;;;;;2.65;1.00;;;32.40;37.20;;;;;;2344172;53;21702;-75
2022/06/12 13:16:54;;;;;;;2.67;1.00;;;32.50;37.10;;;;;;2361938;53;20930;-74
2022/06/12 13:21:00;;;;;;;2.00;0.77;;;32.70;37.60;;;;;;2359980;53;20990;-73
2022/06/12 13:23:58;;;;;;;2.08;0.70;;;32.70;36.90;;;;;;2347924;54;21484;-73
2022/06/12 13:26:24;;;;;;;1.83;0.80;;;32.80;36.90;;;;;;2326315;54;20940;-73
2022/06/12 13:28:58;;;;;;;2.15;0.85;;;32.80;37.10;;;;;;2395393;52;20976;-74
2022/06/12 13:31:28;;;;;;;1.50;0.80;;;32.80;36.80;;;;;;2439552;52;20993;-74
2022/06/12 13:33:57;;;;;;;3.83;0.88;;;32.80;37.00;;;;;;2444972;52;20980;-74
2022/06/12 13:36:32;;;;;;;2.30;0.90;;;32.90;36.60;;;;;;2338736;54;20980;-75
2022/06/12 13:39:02;;;;;;;2.65;0.90;;;33.00;36.50;;;;;;2345714;53;21522;-74
2022/06/12 13:41:36;;;;;;;2.08;0.98;;;33.00;36.80;;;;;;2342374;53;20940;-74
2022/06/12 13:44:31;;;;;;;1.65;0.85;;;33.10;36.60;;;;;;2344474;53;20949;-75
2022/06/12 13:47:11;;;;;;;2.22;0.95;;;33.20;36.10;;;;;;2372032;53;20942;-74
2022/06/12 13:49:44;;;;;;;3.12;0.73;;;33.20;36.40;;;;;;2351621;53;21396;-74
2022/06/12 13:53:13;;;;;;;6.65;2.85;;;33.30;36.50;;;;;;2354000;53;21121;-75
2022/06/12 13:55:59;;;;;;;3.50;1.87;;;33.40;36.00;;;;;;2352352;53;21007;-74
2022/06/12 13:58:37;;;;;;;3.28;1.65;;;33.50;35.90;;;;;;2371375;53;20922;-73
2022/06/12 14:01:45;;;;;;;2.78;1.08;;;33.50;35.70;;;;;;2413936;52;20953;-74
2022/06/12 14:04:24;;;;;;;2.40;1.05;;;33.50;35.80;;;;;;2371078;53;21029;-73
2022/06/12 14:06:51;;;;;;;1.50;0.80;;;33.60;35.70;;;;;;2371814;53;20930;-74
2022/06/12 14:09:34;;;;;;;2.45;0.93;;;33.60;36.00;;;;;;2371794;53;20930;-74
2022/06/12 14:12:00;;;;;;;2.10;0.90;;;33.60;35.40;;;;;;2352020;53;20919;-75
2022/06/12 14:14:41;;;;;;;2.03;0.85;;;33.60;35.50;;;;;;2371319;53;20974;-75
2022/06/12 14:17:31;;;;;;;2.33;1.08;;;33.60;35.10;;;;;;2367797;53;20950;-74
2022/06/12 14:20:40;;;;;;;1.90;0.70;;;33.50;35.50;;;;;;2359196;53;21001;-73
2022/06/12 14:23:20;;;;;;;2.03;0.80;;;33.70;35.70;;;;;;2359404;53;20934;-74
2022/06/12 14:25:51;;;;;;;2.00;0.75;;;33.70;35.30;;;;;;2367650;53;20978;-73
2022/06/12 14:28:39;;;;;;;3.28;1.05;;;33.70;35.20;;;;;;2356957;53;21038;-72
2022/06/12 14:31:52;;;;;;;2.72;0.98;;;33.70;34.80;;;;;;2359777;53;20954;-74
2022/06/12 14:34:24;;;;;;;1.48;0.70;;;33.70;35.00;;;;;;2515010;52;20997;-73
2022/06/12 14:36:57;;;;;;;1.92;0.90;;;33.70;34.90;;;;;;2390958;52;20954;-75
2022/06/12 14:39:36;;;;;;;2.60;1.00;;;33.70;34.80;;;;;;2371509;53;21070;-74
2022/06/12 14:42:11;;;;;;;3.35;0.88;;;33.70;34.80;;;;;;2353374;53;20969;-74
2022/06/12 14:44:38;;;;;;;2.00;0.80;;;33.70;34.90;;;;;;2352150;53;20962;-74
2022/06/12 14:47:23;;;;;;;2.20;0.93;;;33.70;35.10;;;;;;2371833;53;21268;-75
2022/06/12 14:49:50;;;;;;;1.60;0.62;;;33.70;34.60;;;;;;2345256;53;20997;-75
2022/06/12 14:52:22;;;;;;;1.95;0.80;;;33.70;34.80;;;;;;2337096;54;20944;-76
2022/06/12 14:54:52;;;;;;;2.83;0.70;;;33.70;34.70;;;;;;2348295;53;20921;-72
2022/06/12 14:57:21;;;;;;;2.58;0.80;;;33.70;34.40;;;;;;2338641;55;21052;-74